Time;durP1;ratioP1;P1;durP2;ratioP2;P2;SDS_P1;SDS_P2;PMS_P1;PMS_P2;Temp;Humidity;BMP_temperature;BMP_pressure;BME280_temperature;BME280_humidity;BME280_pressure;Samples;Min_cycle;Max_cycle;Signal;HPM_P1;HPM_P2
2023/10/16 00:00:40;;;;;;;1.95;1.20;;;;;;;11.93;61.53;94502.38;4198237;28;20154;-69
2023/10/16 00:02:45;;;;;;;1.80;1.33;;;;;;;11.82;61.69;94519.28;4203490;28;20139;-71
2023/10/16 00:04:47;;;;;;;5.28;1.00;;;;;;;11.70;62.11;94510.97;4205802;28;20059;-71
2023/10/16 00:06:49;;;;;;;3.30;1.10;;;;;;;11.70;62.27;94508.34;4179196;28;20084;-68
2023/10/16 00:08:59;;;;;;;3.05;1.10;;;;;;;11.63;61.86;94517.88;4202394;28;20060;-70
2023/10/16 00:11:06;;;;;;;4.93;1.10;;;;;;;11.61;62.03;94510.19;4208855;28;20535;-69
2023/10/16 00:13:11;;;;;;;1.20;0.95;;;;;;;11.55;61.87;94516.13;4190194;28;20469;-70
2023/10/16 00:15:16;;;;;;;1.52;1.13;;;;;;;11.47;62.13;94524.84;4192323;28;20060;-70
2023/10/16 00:17:21;;;;;;;1.67;1.27;;;;;;;11.51;61.74;94521.84;4197698;28;20500;-70
2023/10/16 00:19:26;;;;;;;3.60;0.90;;;;;;;11.46;61.77;94517.97;4199019;28;20053;-69
2023/10/16 00:21:30;;;;;;;9.63;1.10;;;;;;;11.40;61.78;94529.13;4184301;28;20059;-70
2023/10/16 00:23:38;;;;;;;1.70;1.30;;;;;;;11.18;62.65;94532.44;4192492;28;20536;-70
2023/10/16 00:25:40;;;;;;;1.90;1.38;;;;;;;11.04;62.79;94549.66;4192231;28;20087;-70
2023/10/16 00:27:42;;;;;;;1.90;1.20;;;;;;;11.06;62.48;94543.28;4190409;28;20091;-69
2023/10/16 00:29:44;;;;;;;1.80;1.27;;;;;;;11.07;62.78;94529.16;4201644;28;20052;-71
2023/10/16 00:31:51;;;;;;;2.50;1.25;;;;;;;11.09;62.61;94538.69;4189231;28;20056;-70
2023/10/16 00:33:53;;;;;;;2.58;1.25;;;;;;;10.96;62.77;94542.63;4189107;28;20052;-70
2023/10/16 00:35:56;;;;;;;1.48;1.20;;;;;;;10.80;63.28;94563.63;4188339;28;20050;-69
2023/10/16 00:37:58;;;;;;;1.67;1.30;;;;;;;10.98;63.33;94566.88;4191132;28;20124;-69
2023/10/16 00:40:10;;;;;;;1.88;1.30;;;;;;;10.98;63.02;94577.34;4191596;28;20082;-71
2023/10/16 00:42:13;;;;;;;1.65;1.20;;;;;;;10.92;62.75;94592.91;4209809;28;20060;-68
2023/10/16 00:44:16;;;;;;;1.60;1.40;;;;;;;10.98;62.92;94573.91;4202593;28;20492;-70
2023/10/16 00:46:30;;;;;;;1.52;1.30;;;;;;;10.94;63.05;94580.47;4212527;28;20040;-69
2023/10/16 00:48:33;;;;;;;1.50;1.30;;;;;;;10.91;63.04;94589.47;4204379;28;20052;-71
2023/10/16 00:50:35;;;;;;;1.95;1.45;;;;;;;10.93;63.01;94582.28;4195589;28;20581;-69
2023/10/16 00:52:37;;;;;;;2.30;1.70;;;;;;;11.02;62.36;94573.41;4194031;28;20048;-69
2023/10/16 00:54:39;;;;;;;2.00;1.60;;;;;;;10.94;62.83;94572.59;4211355;28;20547;-69
2023/10/16 00:56:44;;;;;;;2.80;1.80;;;;;;;10.86;62.58;94576.03;4194765;28;20106;-69
2023/10/16 00:58:47;;;;;;;2.40;2.15;;;;;;;10.91;62.87;94580.81;4201104;28;20067;-70
2023/10/16 01:00:49;;;;;;;;;;;;;;;11.00;62.33;94591.13;4204792;28;20055;-70
2023/10/16 01:02:51;;;;;;;4.35;2.35;;;;;;;11.04;62.44;94589.00;4211803;28;20309;-70
2023/10/16 01:04:53;;;;;;;3.40;2.60;;;;;;;11.09;62.18;94584.06;4177891;28;20056;-70
2023/10/16 01:06:55;;;;;;;3.38;2.67;;;;;;;10.97;62.01;94625.53;4194417;28;20143;-71
2023/10/16 01:08:58;;;;;;;3.83;2.95;;;;;;;10.68;63.01;94593.72;4185720;28;20473;-71
2023/10/16 01:11:00;;;;;;;6.40;3.72;;;;;;;10.54;63.42;94643.16;4177980;28;20100;-71
2023/10/16 01:13:08;;;;;;;4.28;3.47;;;;;;;10.54;63.91;94623.97;4207983;28;20133;-69
2023/10/16 01:15:11;;;;;;;3.50;3.20;;;;;;;10.65;63.62;94615.84;4202508;28;20123;-70
2023/10/16 01:17:14;;;;;;;4.63;3.25;;;;;;;10.56;63.40;94601.91;4191319;28;20106;-69
2023/10/16 01:19:19;;;;;;;5.87;3.67;;;;;;;10.57;63.54;94605.34;4211097;28;20054;-70
2023/10/16 01:21:23;;;;;;;4.25;3.78;;;;;;;10.48;63.97;94611.53;4211946;28;20283;-69
2023/10/16 01:23:25;;;;;;;4.55;4.15;;;;;;;10.47;64.13;94605.47;4212510;28;20446;-70
2023/10/16 01:25:28;;;;;;;5.20;4.20;;;;;;;10.31;64.60;94610.69;4212138;28;20044;-69
2023/10/16 01:27:30;;;;;;;6.07;4.00;;;;;;;10.36;64.53;94622.28;4192694;28;20052;-68
2023/10/16 01:29:33;;;;;;;5.18;4.68;;;;;;;10.33;64.32;94627.06;4206883;28;20472;-70
2023/10/16 01:31:36;;;;;;;5.15;4.45;;;;;;;10.22;64.69;94615.84;4184117;28;20200;-71
2023/10/16 01:33:40;;;;;;;4.78;4.35;;;;;;;10.21;65.00;94608.97;4209310;28;20058;-71
2023/10/16 01:35:45;;;;;;;9.18;4.80;;;;;;;10.17;65.22;94622.53;4211882;28;20073;-69
2023/10/16 01:37:49;;;;;;;5.75;5.15;;;;;;;10.21;64.64;94637.75;4191389;28;20584;-70
2023/10/16 01:39:56;;;;;;;6.10;5.43;;;;;;;10.27;65.23;94623.22;4187647;28;20075;-71
2023/10/16 01:42:02;;;;;;;6.07;5.47;;;;;;;10.26;64.51;94645.16;4211913;28;20134;-70
2023/10/16 01:44:09;;;;;;;6.47;5.88;;;;;;;10.33;64.86;94642.75;4210649;28;20127;-70
2023/10/16 01:46:12;;;;;;;7.07;6.47;;;;;;;10.24;64.86;94658.41;4212188;28;20350;-70
2023/10/16 01:48:19;;;;;;;8.45;6.53;;;;;;;10.19;65.07;94642.34;4191340;28;20044;-69
2023/10/16 01:50:22;;;;;;;7.95;6.88;;;;;;;10.05;65.84;94649.00;4173258;28;20064;-69
2023/10/16 01:52:25;;;;;;;7.57;6.97;;;;;;;10.00;65.87;94650.44;4191926;28;20424;-69
2023/10/16 01:54:30;;;;;;;7.90;7.18;;;;;;;9.96;66.17;94670.88;4211266;28;20462;-69
2023/10/16 01:56:32;;;;;;;8.40;7.43;;;;;;;9.91;66.63;94673.13;4201870;28;20052;-68
2023/10/16 01:58:34;;;;;;;8.80;7.72;;;;;;;9.89;67.13;94663.78;4208309;28;20050;-71
2023/10/16 02:00:38;;;;;;;8.63;7.93;;;;;;;9.85;66.33;94663.28;4191490;28;20444;-70
2023/10/16 02:02:40;;;;;;;;;;;;;;;9.89;67.07;94679.50;4194005;28;20056;-69
2023/10/16 02:04:42;;;;;;;13.70;7.75;;;;;;;9.76;66.96;94687.75;4193091;28;19924;-67
2023/10/16 02:06:48;;;;;;;8.13;7.32;;;;;;;9.75;66.60;94697.41;4194072;28;20053;-69
2023/10/16 02:08:50;;;;;;;7.40;6.72;;;;;;;9.87;65.93;94686.69;4177641;28;20750;-69
2023/10/16 02:10:52;;;;;;;7.38;5.50;;;;;;;9.95;64.88;94679.69;4205526;28;20448;-71
2023/10/16 02:12:55;;;;;;;6.40;5.80;;;;;;;10.10;63.81;94682.56;4204693;28;20051;-68
2023/10/16 02:14:57;;;;;;;6.97;6.28;;;;;;;9.94;63.52;94683.31;4211379;28;20066;-68
2023/10/16 02:16:59;;;;;;;7.25;5.90;;;;;;;9.77;63.05;94681.56;4210505;28;20054;-69
2023/10/16 02:19:00;;;;;;;6.90;6.05;;;;;;;9.84;63.23;94704.31;4193649;28;20052;-71
2023/10/16 02:21:04;;;;;;;5.85;5.25;;;;;;;9.91;62.61;94698.47;4211371;28;20052;-70
2023/10/16 02:23:09;;;;;;;6.40;5.80;;;;;;;10.07;62.13;94685.50;4210026;28;20056;-69
2023/10/16 02:25:11;;;;;;;7.72;5.90;;;;;;;10.24;61.85;94697.69;4210634;28;20146;-69
2023/10/16 02:27:14;;;;;;;6.43;5.78;;;;;;;10.42;60.71;94681.91;4211207;28;20423;-68
2023/10/16 02:29:16;;;;;;;5.50;5.00;;;;;;;10.51;60.26;94701.06;4211056;28;20471;-70
2023/10/16 02:31:20;;;;;;;5.80;5.30;;;;;;;10.60;59.72;94697.53;4211070;28;20795;-69
2023/10/16 02:33:28;;;;;;;6.15;5.15;;;;;;;10.40;60.79;94698.75;4211533;28;20462;-68
2023/10/16 02:35:30;;;;;;;6.25;5.65;;;;;;;10.35;60.87;94695.81;4191428;28;20075;-70
2023/10/16 02:37:32;;;;;;;6.05;5.45;;;;;;;10.44;60.03;94700.88;4209899;28;20504;-68
2023/10/16 02:39:50;;;;;;;6.38;5.63;;;;;;;10.52;59.93;94704.50;4199186;28;20053;-69
2023/10/16 02:41:55;;;;;;;7.30;5.95;;;;;;;10.52;59.70;94704.50;4194930;28;20110;-69
2023/10/16 02:43:57;;;;;;;6.13;5.53;;;;;;;10.46;59.46;94716.47;4210556;28;20082;-69
2023/10/16 02:46:03;;;;;;;5.35;4.85;;;;;;;10.36;59.76;94711.31;4208943;28;20052;-70
2023/10/16 02:48:16;;;;;;;8.75;5.47;;;;;;;10.39;59.41;94710.19;4195185;28;20057;-70
2023/10/16 02:50:19;;;;;;;6.03;5.43;;;;;;;10.49;58.90;94704.84;4209456;28;20066;-70
2023/10/16 02:52:25;;;;;;;7.13;6.38;;;;;;;10.46;59.29;94708.59;4181068;28;20095;-70
2023/10/16 02:54:27;;;;;;;6.47;5.88;;;;;;;10.52;59.12;94718.44;4193206;28;20101;-70
2023/10/16 02:56:30;;;;;;;6.00;5.40;;;;;;;10.59;58.89;94719.44;4210564;28;20494;-69
2023/10/16 02:58:32;;;;;;;8.07;5.45;;;;;;;10.44;58.74;94728.88;4194314;28;20554;-70
2023/10/16 03:00:35;;;;;;;7.35;5.65;;;;;;;10.17;58.92;94728.06;4210139;28;20136;-69
2023/10/16 03:02:39;;;;;;;6.27;5.60;;;;;;;10.24;59.03;94728.28;4192091;28;20128;-69
2023/10/16 03:04:43;;;;;;;7.03;6.20;;;;;;;10.30;58.63;94729.47;4210082;28;20117;-71
2023/10/16 03:06:48;;;;;;;6.20;5.60;;;;;;;10.44;58.89;94726.28;4192587;28;20052;-69
2023/10/16 03:08:50;;;;;;;5.47;4.97;;;;;;;10.47;58.49;94732.97;4191998;28;21241;-71
2023/10/16 03:10:52;;;;;;;6.93;5.80;;;;;;;10.40;58.24;94735.41;4209887;28;20503;-71
2023/10/16 03:12:56;;;;;;;6.00;5.40;;;;;;;10.43;58.61;94732.47;4192169;28;20083;-71
2023/10/16 03:15:00;;;;;;;11.52;5.68;;;;;;;10.41;58.49;94731.81;4192907;28;20535;-70
2023/10/16 03:17:10;;;;;;;6.55;5.90;;;;;;;10.18;58.94;94734.94;4208422;28;20055;-68
2023/10/16 03:19:16;;;;;;;5.78;5.20;;;;;;;10.10;58.81;94750.59;4209239;28;20082;-69
2023/10/16 03:23:20;;;;;;;9.93;5.28;;;;;;;10.10;58.78;94748.00;4209086;28;20127;-69
2023/10/16 03:25:28;;;;;;;6.53;5.32;;;;;;;10.16;58.80;94741.31;4181303;28;20048;-69
2023/10/16 03:27:31;;;;;;;7.20;5.13;;;;;;;10.21;58.90;94758.19;4200037;28;20095;-69
2023/10/16 03:29:33;;;;;;;5.70;5.20;;;;;;;10.29;58.49;94756.63;4210142;28;20056;-70
2023/10/16 03:31:39;;;;;;;8.50;5.80;;;;;;;10.34;58.44;94762.22;4210000;28;20139;-71
2023/10/16 03:33:43;;;;;;;8.63;5.80;;;;;;;10.23;58.53;94752.81;4192841;28;20063;-70
2023/10/16 03:35:47;;;;;;;6.28;5.60;;;;;;;10.27;58.29;94751.53;4205020;28;20473;-68
2023/10/16 03:37:49;;;;;;;7.40;5.53;;;;;;;10.37;58.40;94759.31;4210788;28;20484;-71
2023/10/16 03:40:03;;;;;;;10.80;5.22;;;;;;;10.36;58.00;94763.69;4176064;28;20493;-69
2023/10/16 03:42:09;;;;;;;;;;;;;;;10.20;58.42;94758.38;4194726;28;20052;-70
2023/10/16 03:44:15;;;;;;;6.60;6.00;;;;;;;10.14;58.34;94780.75;4207681;28;19924;-70
2023/10/16 03:46:16;;;;;;;5.80;5.20;;;;;;;10.06;59.13;94764.97;4192301;28;20566;-70
2023/10/16 03:48:19;;;;;;;7.82;5.80;;;;;;;10.05;58.76;94766.78;4201075;28;20053;-70
2023/10/16 03:50:38;;;;;;;8.23;5.78;;;;;;;10.08;58.57;94763.03;4204446;28;20052;-69
2023/10/16 03:52:40;;;;;;;7.80;6.03;;;;;;;10.11;58.56;94767.97;4189502;28;20048;-70
2023/10/16 03:54:42;;;;;;;6.30;5.53;;;;;;;10.02;58.59;94774.09;4209260;28;20130;-70
2023/10/16 03:56:45;;;;;;;8.48;6.32;;;;;;;9.84;59.61;94766.31;4205808;28;20133;-71
2023/10/16 03:58:48;;;;;;;7.72;6.50;;;;;;;9.96;59.00;94769.47;4209508;28;20064;-70
2023/10/16 04:00:58;;;;;;;9.05;6.43;;;;;;;9.96;58.79;94769.47;4210050;28;20186;-70
2023/10/16 04:03:00;;;;;;;9.18;6.45;;;;;;;10.15;58.73;94768.47;4203722;28;20127;-69
2023/10/16 04:05:11;;;;;;;9.70;6.45;;;;;;;10.07;58.46;94771.88;4202881;28;20526;-72
2023/10/16 04:07:14;;;;;;;9.02;6.30;;;;;;;9.94;58.50;94774.06;4210107;28;20036;-71
2023/10/16 04:09:17;;;;;;;6.97;6.28;;;;;;;9.95;58.29;94780.94;4210727;28;20059;-72
2023/10/16 04:11:24;;;;;;;10.10;6.38;;;;;;;10.00;58.42;94799.59;4192330;28;20346;-71
2023/10/16 04:13:26;;;;;;;6.90;6.20;;;;;;;10.01;58.21;94799.47;4208844;28;20341;-71
2023/10/16 04:17:39;;;;;;;7.78;6.47;;;;;;;10.20;57.47;94795.84;4209711;28;20093;-71
2023/10/16 04:22:09;;;;;;;8.05;6.20;;;;;;;10.19;57.42;94793.34;4150993;28;20458;-72
2023/10/16 04:26:47;;;;;;;6.88;6.18;;;;;;;10.23;57.79;94807.78;4203079;28;20092;-72
2023/10/16 04:31:43;;;;;;;7.95;6.32;;;;;;;9.93;58.49;94825.56;4188174;28;20049;-71
2023/10/16 04:33:48;;;;;;;12.43;6.40;;;;;;;10.09;58.22;94835.34;4209378;28;20048;-71
2023/10/16 04:37:56;;;;;;;6.68;5.78;;;;;;;10.00;57.61;94842.31;4208958;28;20139;-74
2023/10/16 04:46:55;;;;;;;9.13;5.85;;;;;;;9.49;59.30;94863.94;4209742;28;20468;-70
2023/10/16 04:48:58;;;;;;;8.27;5.78;;;;;;;9.65;58.61;94853.63;4208573;28;20062;-72
2023/10/16 04:51:15;;;;;;;9.82;5.68;;;;;;;9.66;58.61;94864.91;4189786;28;20103;-71
2023/10/16 04:53:48;;;;;;;7.60;5.57;;;;;;;9.72;58.50;94870.38;4206093;28;20388;-70
2023/10/16 04:55:53;;;;;;;8.88;6.00;;;;;;;9.79;58.39;94868.00;4187123;28;20075;-72
2023/10/16 04:58:27;;;;;;;7.95;5.53;;;;;;;9.83;58.38;94867.53;4190189;28;20052;-72
2023/10/16 05:00:54;;;;;;;6.63;5.57;;;;;;;9.81;58.27;94886.97;4203261;28;20131;-71
2023/10/16 05:02:52;;;;;;;10.77;5.60;;;;;;;9.86;57.99;94878.69;4192953;28;20569;-71
2023/10/16 05:07:45;;;;;;;;;;;;;;;10.00;57.52;94897.28;4151359;28;20081;-72
2023/10/16 05:10:12;;;;;;;8.32;5.30;;;;;;;10.03;58.13;94896.97;4205356;28;19920;-71
2023/10/16 06:15:48;;;;;;;8.00;3.50;;;;;;;9.92;55.41;94995.84;4210907;28;20062;-71
2023/10/16 06:17:53;;;;;;;5.68;3.70;;;;;;;9.98;55.25;95013.53;4212287;28;20106;-71
2023/10/16 06:19:56;;;;;;;5.30;3.67;;;;;;;10.00;55.00;95016.84;4203327;28;20841;-73
2023/10/16 06:22:06;;;;;;;10.75;3.70;;;;;;;9.87;54.77;95011.16;4208550;28;20063;-68
2023/10/16 06:24:25;;;;;;;7.47;3.95;;;;;;;9.94;54.54;95013.03;4212021;28;20052;-71
2023/10/16 06:26:28;;;;;;;3.90;3.03;;;;;;;9.88;54.68;95016.25;4211344;28;20103;-71
2023/10/16 06:28:30;;;;;;;5.38;3.13;;;;;;;9.92;54.98;95024.63;4176736;28;20064;-73
2023/10/16 06:30:37;;;;;;;6.25;3.95;;;;;;;9.95;54.51;95021.69;4193217;28;20048;-72
2023/10/16 06:32:41;;;;;;;7.72;3.85;;;;;;;10.08;53.82;95030.03;4194190;28;20048;-72
2023/10/16 06:34:43;;;;;;;7.57;3.65;;;;;;;10.39;52.93;95029.69;4188206;28;20048;-73
2023/10/16 06:36:45;;;;;;;7.18;3.78;;;;;;;10.55;52.38;95027.22;4211632;28;20052;-73
2023/10/16 06:38:51;;;;;;;7.47;4.22;;;;;;;10.47;52.96;95019.28;4206004;28;20052;-72
2023/10/16 06:40:55;;;;;;;7.78;3.53;;;;;;;10.69;52.57;95015.41;4210279;28;20063;-72
2023/10/16 06:43:11;;;;;;;7.05;3.45;;;;;;;10.73;51.97;95013.28;4186162;28;20064;-71
2023/10/16 06:45:22;;;;;;;5.15;3.20;;;;;;;10.96;51.94;95014.44;4192316;28;20063;-72
2023/10/16 06:47:42;;;;;;;6.72;3.85;;;;;;;10.38;52.83;95017.56;4195271;28;20436;-72
2023/10/16 06:49:46;;;;;;;9.57;4.32;;;;;;;10.39;53.34;95025.28;4212005;28;20044;-72
2023/10/16 06:51:48;;;;;;;11.05;3.22;;;;;;;10.54;52.58;95030.84;4210800;28;20484;-72
2023/10/16 06:53:50;;;;;;;8.77;3.00;;;;;;;10.50;52.29;95028.66;4208624;28;20067;-72
2023/10/16 06:55:55;;;;;;;7.10;3.45;;;;;;;10.25;52.38;95029.22;4210679;28;20048;-72
2023/10/16 06:57:57;;;;;;;5.75;3.08;;;;;;;10.37;52.87;95048.19;4193429;28;20174;-72
2023/10/16 06:59:59;;;;;;;8.70;3.28;;;;;;;10.34;52.14;95035.38;4192443;28;20556;-73
2023/10/16 07:02:03;;;;;;;6.85;3.70;;;;;;;10.40;52.42;95047.06;4199102;28;20048;-71
2023/10/16 07:04:05;;;;;;;7.57;4.57;;;;;;;10.33;52.54;95052.06;4211339;28;20052;-72
2023/10/16 07:06:09;;;;;;;6.93;3.30;;;;;;;10.52;52.40;95056.34;4207345;28;20048;-74
2023/10/16 07:08:19;;;;;;;6.97;3.10;;;;;;;10.72;51.87;95053.56;4208762;28;20051;-73
2023/10/16 07:10:21;;;;;;;9.75;3.53;;;;;;;10.71;51.77;95052.75;4192806;28;20120;-73
2023/10/16 07:12:23;;;;;;;5.85;3.15;;;;;;;10.67;51.81;95051.41;4197787;28;20107;-73
2023/10/16 07:14:26;;;;;;;8.77;3.60;;;;;;;10.70;51.42;95050.28;4192388;28;20083;-74
2023/10/16 07:16:33;;;;;;;5.40;3.38;;;;;;;10.74;51.19;95041.97;4194036;28;20473;-74
2023/10/16 07:18:42;;;;;;;4.63;3.08;;;;;;;10.86;51.18;95035.50;4204026;28;20056;-72
2023/10/16 07:23:17;;;;;;;5.35;3.30;;;;;;;10.89;50.79;95036.19;4195002;28;20571;-71
2023/10/16 07:25:25;;;;;;;6.53;2.90;;;;;;;10.91;50.64;95045.53;4192905;28;20135;-72
2023/10/16 07:27:31;;;;;;;4.30;2.70;;;;;;;11.21;50.13;95046.06;4198295;28;20044;-73
2023/10/16 07:29:35;;;;;;;5.75;2.80;;;;;;;11.37;49.62;95043.53;4192352;28;20530;-73
2023/10/16 07:31:38;;;;;;;4.95;2.60;;;;;;;11.51;49.27;95036.06;4193890;28;20112;-73
2023/10/16 07:33:41;;;;;;;6.38;3.45;;;;;;;11.63;49.17;95032.19;4192825;28;20052;-73
2023/10/16 07:35:49;;;;;;;5.57;2.70;;;;;;;11.81;48.52;95040.81;4193614;28;20139;-73
2023/10/16 07:37:55;;;;;;;17.60;8.32;;;;;;;11.09;49.77;95052.53;4209255;28;20044;-72
2023/10/16 07:39:57;;;;;;;6.95;3.50;;;;;;;10.87;50.60;95044.19;4208110;28;20084;-73
2023/10/16 07:42:01;;;;;;;4.07;2.90;;;;;;;11.14;49.93;95042.41;4202073;28;20052;-72
2023/10/16 07:44:04;;;;;;;8.55;3.10;;;;;;;11.14;49.58;95037.16;4190649;28;20056;-73
2023/10/16 07:46:17;;;;;;;6.37;2.50;;;;;;;11.45;48.52;95030.47;4203132;28;20763;-73
2023/10/16 07:48:27;;;;;;;5.97;2.60;;;;;;;11.84;47.92;95029.16;4210213;28;20304;-73
2023/10/16 07:50:30;;;;;;;7.05;2.80;;;;;;;11.97;47.32;95034.00;4210193;28;20753;-71
2023/10/16 07:52:33;;;;;;;7.28;3.53;;;;;;;11.11;48.86;95045.34;4208761;28;20484;-73
2023/10/16 07:54:36;;;;;;;10.45;2.90;;;;;;;11.46;48.61;95044.41;4208738;28;20052;-71
2023/10/16 07:56:38;;;;;;;10.73;3.00;;;;;;;11.72;48.06;95041.72;4208018;28;20056;-73
2023/10/16 07:58:48;;;;;;;18.30;7.43;;;;;;;11.25;48.59;95034.31;4196379;28;20312;-73
2023/10/16 08:03:14;;;;;;;7.40;3.33;;;;;;;11.91;47.36;95034.63;4209091;28;20453;-71
2023/10/16 08:05:16;;;;;;;7.15;2.92;;;;;;;12.24;46.24;95025.88;4181249;28;20052;-73
2023/10/16 08:07:18;;;;;;;5.43;2.45;;;;;;;12.46;46.22;95024.41;4185036;28;20577;-74
2023/10/16 08:11:25;;;;;;;10.32;3.50;;;;;;;12.45;45.67;95027.19;4208212;28;20090;-72
2023/10/16 08:13:33;;;;;;;9.65;3.35;;;;;;;12.78;45.01;95016.72;4192109;28;20055;-71
2023/10/16 08:15:35;;;;;;;11.25;4.00;;;;;;;12.38;44.57;95018.31;4197458;28;20113;-73
2023/10/16 08:17:38;;;;;;;75.03;69.30;;;;;;;11.62;45.48;95035.81;4207811;28;20048;-73
2023/10/16 08:19:44;;;;;;;47.15;43.08;;;;;;;11.46;45.29;95029.50;4191763;28;20147;-70
2023/10/16 08:21:46;;;;;;;59.10;54.80;;;;;;;11.04;45.62;95034.66;4186667;28;20535;-70
2023/10/16 08:23:49;;;;;;;33.55;30.85;;;;;;;11.04;46.16;95024.97;4209963;28;20064;-72
2023/10/16 08:25:51;;;;;;;32.20;29.85;;;;;;;10.89;46.87;95029.13;4209743;28;20051;-71
2023/10/16 08:27:57;;;;;;;22.55;20.77;;;;;;;11.38;47.28;95034.69;4198608;28;20134;-73
2023/10/16 08:29:59;;;;;;;31.80;29.52;;;;;;;11.93;46.10;95028.22;4193037;28;20695;-72
2023/10/16 08:34:21;;;;;;;17.73;15.98;;;;;;;12.61;43.95;95021.16;4201233;28;20070;-74
2023/10/16 08:36:24;;;;;;;12.77;7.40;;;;;;;12.73;43.46;95026.88;4175285;28;20059;-73
2023/10/16 08:38:26;;;;;;;12.75;11.45;;;;;;;13.06;43.06;95027.72;4184127;28;20059;-73
2023/10/16 08:40:39;;;;;;;25.67;23.55;;;;;;;13.01;42.79;95033.44;4203589;28;20131;-71
2023/10/16 08:42:41;;;;;;;22.52;20.63;;;;;;;13.03;42.75;95034.09;4191054;28;20048;-73
2023/10/16 08:44:45;;;;;;;23.77;21.73;;;;;;;12.81;42.60;95038.22;4191788;28;20475;-73
2023/10/16 08:49:01;;;;;;;21.77;20.27;;;;;;;11.82;45.14;95031.94;4209564;28;20534;-73
2023/10/16 08:51:08;;;;;;;24.20;22.13;;;;;;;12.16;44.23;95025.84;4206135;28;20066;-72
2023/10/16 08:53:33;;;;;;;16.98;15.57;;;;;;;12.53;43.30;95024.59;4208026;28;20401;-73
2023/10/16 08:55:37;;;;;;;16.02;14.90;;;;;;;12.78;42.55;95027.25;4182175;28;20059;-74
2023/10/16 08:57:39;;;;;;;22.20;20.73;;;;;;;13.01;42.14;95024.75;4191413;28;20040;-74
2023/10/16 08:59:44;;;;;;;31.02;29.13;;;;;;;13.40;41.56;95032.78;4209233;28;20051;-72
2023/10/16 09:01:48;;;;;;;31.58;29.65;;;;;;;13.45;41.21;95035.72;4193435;28;20136;-72
2023/10/16 09:03:56;;;;;;;;;;;;;;;13.34;41.01;95030.00;4180354;28;20050;-74
2023/10/16 09:06:01;;;;;;;19.63;18.02;;;;;;;13.22;41.33;95026.84;4208691;28;20307;-73
2023/10/16 09:08:14;;;;;;;22.20;20.45;;;;;;;13.29;41.48;95030.47;4202791;28;20048;-74
2023/10/16 09:10:21;;;;;;;18.77;17.38;;;;;;;13.47;40.96;95039.00;4211670;28;20139;-74
2023/10/16 09:12:26;;;;;;;19.45;17.95;;;;;;;13.58;40.60;95029.94;4206848;28;20051;-73
2023/10/16 09:14:29;;;;;;;21.25;19.70;;;;;;;13.60;40.20;95013.97;4194028;28;20060;-73
2023/10/16 09:16:31;;;;;;;31.92;29.75;;;;;;;13.41;40.85;95023.06;4191198;28;20047;-73
2023/10/16 09:18:34;;;;;;;30.23;28.35;;;;;;;13.55;40.81;95025.00;4194536;28;20090;-72
2023/10/16 09:20:41;;;;;;;22.23;20.73;;;;;;;13.63;39.99;95038.13;4211398;28;20488;-73
2023/10/16 09:22:47;;;;;;;32.80;30.48;;;;;;;13.60;39.91;95029.78;4199116;28;20493;-78
2023/10/16 09:24:51;;;;;;;23.88;22.33;;;;;;;13.91;40.00;95011.38;4192394;28;20522;-73
2023/10/16 09:26:57;;;;;;;23.48;21.85;;;;;;;14.14;39.64;95024.59;4209382;28;20384;-72
2023/10/16 09:29:13;;;;;;;24.75;23.15;;;;;;;13.84;39.51;95024.41;4194055;28;20044;-73
2023/10/16 09:31:19;;;;;;;25.95;24.35;;;;;;;12.85;41.02;95020.31;4213357;28;20055;-73
2023/10/16 09:33:23;;;;;;;27.45;25.30;;;;;;;13.32;40.64;95022.28;4178791;28;20123;-73
2023/10/16 09:35:32;;;;;;;30.20;28.38;;;;;;;13.62;40.08;95019.91;4202950;28;20507;-74
2023/10/16 09:37:35;;;;;;;31.80;29.83;;;;;;;13.47;39.58;95015.31;4206798;28;20481;-74
2023/10/16 09:39:40;;;;;;;30.70;28.73;;;;;;;13.71;39.69;95017.03;4212972;28;20055;-74
2023/10/16 09:41:46;;;;;;;29.77;28.00;;;;;;;13.67;39.41;95004.41;4203572;28;20140;-73
2023/10/16 09:43:56;;;;;;;22.35;20.95;;;;;;;13.66;39.43;95003.59;4177939;28;20146;-73
2023/10/16 09:46:59;;;;;;;26.10;24.50;;;;;;;13.71;39.57;94995.16;4176711;28;20156;-73
2023/10/16 09:48:31;;;;;;;29.60;27.95;;;;;;;13.95;38.50;94990.78;4180050;28;20098;-74
2023/10/16 09:50:38;;;;;;;37.88;35.72;;;;;;;14.13;38.64;94996.59;4207218;28;20144;-73
2023/10/16 09:52:48;;;;;;;35.47;33.25;;;;;;;14.23;37.92;94991.94;4212361;28;20139;-74
2023/10/16 09:54:52;;;;;;;49.75;45.88;;;;;;;13.82;39.02;95000.06;4209559;28;20060;-74
2023/10/16 09:57:00;;;;;;;39.03;36.38;;;;;;;13.61;39.61;94989.28;4201939;28;20059;-72
2023/10/16 09:59:17;;;;;;;37.88;35.50;;;;;;;13.14;40.21;94997.94;4194697;28;20075;-73
2023/10/16 10:01:29;;;;;;;34.08;32.08;;;;;;;13.37;40.42;94996.25;4196605;28;20146;-71
2023/10/16 10:03:31;;;;;;;44.35;41.70;;;;;;;12.93;39.86;94993.19;4196468;28;20056;-72
2023/10/16 10:05:55;;;;;;;45.27;42.23;;;;;;;13.29;40.13;94985.75;4188803;28;20056;-74
2023/10/16 10:07:59;;;;;;;31.35;29.40;;;;;;;13.61;39.29;94986.66;4206387;28;20056;-74
2023/10/16 10:12:43;;;;;;;28.27;26.55;;;;;;;13.59;39.04;94983.38;4207251;28;20056;-72
2023/10/16 10:15:01;;;;;;;35.95;33.75;;;;;;;13.86;38.66;94968.94;4192273;28;20064;-72
2023/10/16 10:17:04;;;;;;;28.98;27.27;;;;;;;13.99;38.14;94971.00;4195375;28;20052;-73
2023/10/16 10:19:35;;;;;;;39.15;37.05;;;;;;;14.26;37.64;94974.94;4194784;28;20064;-72
2023/10/16 10:21:46;;;;;;;37.40;35.10;;;;;;;14.41;37.61;94978.50;4187452;28;20661;-72
2023/10/16 10:23:48;;;;;;;39.00;36.25;;;;;;;14.20;37.64;94968.56;4209367;28;20151;-72
2023/10/16 10:25:53;;;;;;;68.80;64.88;;;;;;;13.98;37.89;94983.38;4192157;28;20063;-72
2023/10/16 10:27:55;;;;;;;55.78;52.25;;;;;;;13.13;38.97;94973.44;4211771;28;20401;-73
2023/10/16 10:30:01;;;;;;;41.70;39.23;;;;;;;12.82;39.35;94960.16;4192037;28;20132;-72
2023/10/16 10:32:09;;;;;;;39.83;37.60;;;;;;;13.34;39.49;94957.16;4212689;28;20269;-74
2023/10/16 10:34:29;;;;;;;51.58;48.88;;;;;;;13.61;38.45;94955.88;4198927;28;20106;-74
2023/10/16 10:36:34;;;;;;;43.50;41.10;;;;;;;14.01;38.18;94950.59;4190883;28;20053;-74
2023/10/16 10:38:36;;;;;;;46.58;43.53;;;;;;;14.05;37.72;94947.44;4205988;28;20048;-73
2023/10/16 10:40:39;;;;;;;38.80;36.65;;;;;;;14.22;37.47;94937.59;4192336;28;20087;-73
2023/10/16 10:42:41;;;;;;;52.22;49.42;;;;;;;14.66;37.22;94938.78;4194058;28;20505;-74
2023/10/16 10:44:54;;;;;;;45.53;42.85;;;;;;;14.70;36.50;94937.41;4194165;28;20048;-72
2023/10/16 10:47:00;;;;;;;44.85;42.45;;;;;;;14.11;38.07;94943.25;4210520;28;20059;-73
2023/10/16 10:49:03;;;;;;;35.35;33.30;;;;;;;14.26;37.61;94941.53;4193889;28;20087;-73
2023/10/16 10:51:13;;;;;;;40.40;38.30;;;;;;;14.62;37.28;94940.94;4177452;28;20244;-72
2023/10/16 10:53:15;;;;;;;38.72;36.45;;;;;;;14.53;37.21;94924.34;4210392;28;20075;-72
2023/10/16 10:55:18;;;;;;;35.40;33.22;;;;;;;14.77;36.36;94925.16;4211154;28;20061;-73
2023/10/16 10:57:24;;;;;;;46.17;43.05;;;;;;;14.62;36.36;94927.75;4177037;28;20041;-72
2023/10/16 10:59:41;;;;;;;40.60;38.40;;;;;;;14.79;36.29;94917.88;4193439;28;20139;-75
2023/10/16 11:02:09;;;;;;;38.97;36.92;;;;;;;15.09;35.54;94920.56;4211055;28;20056;-75
2023/10/16 11:04:16;;;;;;;54.90;51.55;;;;;;;15.41;35.23;94918.56;4210520;28;20064;-74
2023/10/16 11:06:20;;;;;;;50.30;47.42;;;;;;;14.99;35.92;94922.63;4210813;28;20052;-73
2023/10/16 11:08:30;;;;;;;47.72;45.25;;;;;;;14.86;35.63;94921.44;4186669;28;20492;-74
2023/10/16 11:10:32;;;;;;;56.92;54.10;;;;;;;15.01;35.54;94915.34;4199297;28;20070;-74
2023/10/16 11:12:34;;;;;;;49.83;47.33;;;;;;;15.35;34.91;94925.38;4192579;28;20385;-73
2023/10/16 11:14:38;;;;;;;42.72;40.53;;;;;;;15.64;34.91;94924.53;4209747;28;20055;-71
2023/10/16 11:16:42;;;;;;;47.10;44.60;;;;;;;15.89;34.06;94919.75;4203279;28;20052;-73
2023/10/16 11:19:04;;;;;;;56.63;53.63;;;;;;;16.08;33.93;94905.13;4212336;28;20537;-71
2023/10/16 11:21:07;;;;;;;63.25;60.00;;;;;;;16.22;33.89;94906.09;4189232;28;20110;-76
2023/10/16 11:23:15;;;;;;;55.33;52.35;;;;;;;16.18;33.38;94912.75;4203461;28;20147;-75
2023/10/16 11:25:20;;;;;;;57.13;54.03;;;;;;;15.93;33.82;94910.47;4208053;28;20056;-72
2023/10/16 11:27:22;;;;;;;56.03;52.83;;;;;;;15.57;34.22;94911.25;4192657;28;20080;-71
2023/10/16 11:29:33;;;;;;;49.50;46.90;;;;;;;15.65;34.63;94910.31;4193124;28;20082;-73